Block Number:

FAA Identifier: KMEV

AWOS Phone: 775-782-6264

AWOS Radio Freq: 119.325

Current Conditions

Updated: 8:54 PM GMT on 24 Sep 2017

  • Wind Speed (2min):
    6 Knots
  • Wind Direction (2min):
    310 Degrees
  • Temperature (10min):
    15 Celsius
  • Dew Point (10min):
    -5 Celsius
  • Humidity:
    24 Percent
  • Altimeter:
    30.10 inHG
  • Density Altitude:
  • Visibility:
    10 Miles
  • Clouds:
    CLR
METAR: METAR KMEV 242055Z AUTO 32006KT 10SM CLR 15/M05 A3009 RMK AO2